Time;durP1;ratioP1;P1;durP2;ratioP2;P2;SDS_P1;SDS_P2;PMS_P1;PMS_P2;Temp;Humidity;BMP_temperature;BMP_pressure;BME280_temperature;BME280_humidity;BME280_pressure;Samples;Min_cycle;Max_cycle;Signal;HPM_P1;HPM_P2
2022/11/01 00:01:13;;;;;;;29.80;22.27;;;13.40;1.00;;;;;;4971570;28;20205;-67
2022/11/01 00:03:39;;;;;;;30.60;22.63;;;13.30;1.00;;;;;;4965065;28;20182;-67
2022/11/01 00:06:05;;;;;;;79.47;28.00;;;13.30;1.00;;;;;;4981284;28;20173;-66
2022/11/01 00:08:30;;;;;;;44.30;23.07;;;13.30;1.00;;;;;;4991839;28;20198;-67
2022/11/01 00:11:04;;;;;;;31.43;21.73;;;13.30;1.00;;;;;;4974895;28;20231;-66
2022/11/01 00:13:30;;;;;;;35.47;22.20;;;13.30;1.00;;;;;;4967973;28;20207;-66
2022/11/01 00:15:55;;;;;;;36.20;21.90;;;13.20;1.00;;;;;;4971569;28;20438;-66
2022/11/01 00:18:21;;;;;;;32.27;23.03;;;13.20;1.00;;;;;;4960330;28;20255;-66
2022/11/01 00:20:47;;;;;;;35.20;21.60;;;13.20;1.00;;;;;;4975059;28;20252;-66
2022/11/01 00:23:13;;;;;;;29.90;22.60;;;13.30;1.00;;;;;;4989382;28;20190;-66
2022/11/01 00:25:38;;;;;;;28.67;21.40;;;13.30;1.00;;;;;;4982965;28;20181;-67
2022/11/01 00:28:04;;;;;;;28.40;21.50;;;13.30;1.00;;;;;;4991669;28;20177;-66
2022/11/01 00:30:30;;;;;;;27.23;20.73;;;13.30;1.00;;;;;;4969388;28;20710;-67
2022/11/01 00:32:57;;;;;;;23.80;19.50;;;13.20;1.00;;;;;;4975642;28;20185;-67
2022/11/01 00:35:23;;;;;;;22.07;19.07;;;13.20;1.00;;;;;;4985103;28;20257;-67
2022/11/01 00:37:49;;;;;;;26.60;19.40;;;13.10;1.00;;;;;;4986757;28;20445;-67
2022/11/01 00:40:15;;;;;;;24.10;19.50;;;13.10;1.00;;;;;;4968848;28;20489;-67
2022/11/01 00:42:40;;;;;;;28.70;19.43;;;13.10;1.00;;;;;;4981383;28;20905;-67
2022/11/01 00:45:06;;;;;;;32.80;19.83;;;13.10;1.00;;;;;;4991726;28;20201;-67
2022/11/01 00:47:32;;;;;;;30.80;19.53;;;13.10;1.00;;;;;;4977873;28;20193;-67
2022/11/01 00:49:58;;;;;;;37.97;20.27;;;13.10;1.00;;;;;;4974941;28;20479;-67
2022/11/01 00:52:23;;;;;;;23.30;18.77;;;13.20;1.00;;;;;;4978837;28;20400;-66
2022/11/01 00:54:49;;;;;;;21.83;19.53;;;13.20;1.00;;;;;;4972030;28;20205;-66
2022/11/01 00:57:15;;;;;;;21.47;19.23;;;13.10;1.00;;;;;;4972748;28;20170;-68
2022/11/01 00:59:40;;;;;;;29.37;20.30;;;13.10;1.00;;;;;;4972117;28;20197;-68
2022/11/01 01:02:06;;;;;;;31.33;17.73;;;13.20;1.00;;;;;;4970613;28;20521;-68
2022/11/01 01:04:32;;;;;;;28.77;20.47;;;13.10;1.00;;;;;;4971549;28;20540;-67
2022/11/01 01:06:57;;;;;;;29.67;21.10;;;13.00;1.00;;;;;;4970601;28;20182;-66
2022/11/01 01:09:23;;;;;;;23.40;19.23;;;12.90;1.00;;;;;;4971321;28;20257;-66
2022/11/01 01:11:49;;;;;;;25.03;19.60;;;12.90;1.00;;;;;;4970674;28;20166;-65
2022/11/01 01:14:14;;;;;;;25.17;19.90;;;13.00;1.00;;;;;;4971374;28;20176;-66
2022/11/01 01:16:40;;;;;;;41.23;21.00;;;13.00;1.00;;;;;;4971679;28;20256;-66
2022/11/01 01:19:06;;;;;;;22.00;17.87;;;13.00;1.00;;;;;;4971008;28;20184;-66
2022/11/01 01:21:31;;;;;;;23.80;18.53;;;13.00;1.00;;;;;;4970554;28;20190;-66
2022/11/01 01:23:57;;;;;;;20.60;18.13;;;13.10;1.00;;;;;;4968476;28;20201;-67
2022/11/01 01:26:22;;;;;;;24.40;18.20;;;13.10;1.00;;;;;;4955196;28;20196;-67
2022/11/01 01:28:52;;;;;;;21.80;19.10;;;13.10;1.00;;;;;;4960803;28;20213;-67
2022/11/01 01:31:18;;;;;;;38.73;18.47;;;13.10;1.00;;;;;;4969838;28;20218;-67
2022/11/01 01:33:43;;;;;;;18.93;16.97;;;13.10;1.00;;;;;;4976351;28;20519;-67
2022/11/01 01:36:10;;;;;;;27.73;18.23;;;13.00;1.00;;;;;;4981685;28;20184;-67
2022/11/01 01:38:35;;;;;;;18.17;16.27;;;13.00;1.00;;;;;;4964805;28;20178;-67
2022/11/01 01:43:45;;;;;;;23.37;18.03;;;13.00;1.00;;;;;;4970884;28;20196;-67
2022/11/01 01:46:11;;;;;;;29.27;18.00;;;12.90;1.00;;;;;;4970065;28;20532;-67
2022/11/01 01:48:40;;;;;;;23.43;16.00;;;12.90;1.00;;;;;;4963196;28;20658;-67
2022/11/01 01:51:11;;;;;;;21.57;16.10;;;13.00;1.00;;;;;;4969446;28;20253;-67
2022/11/01 01:53:40;;;;;;;23.17;15.40;;;13.00;1.00;;;;;;4980148;28;20444;-66
2022/11/01 01:56:13;;;;;;;18.27;16.30;;;13.00;1.00;;;;;;4959760;28;20471;-67
2022/11/01 01:59:01;;;;;;;21.87;15.37;;;13.00;1.00;;;;;;4965870;28;20435;-66
2022/11/01 02:01:27;;;;;;;16.67;14.90;;;13.00;1.00;;;;;;4971254;28;20459;-66
2022/11/01 02:03:53;;;;;;;23.93;15.83;;;13.00;1.00;;;;;;4975294;28;20436;-67
2022/11/01 02:06:21;;;;;;;21.80;16.07;;;13.00;1.00;;;;;;4977975;28;20915;-67
2022/11/01 02:08:52;;;;;;;20.80;16.97;;;13.00;1.00;;;;;;4980562;28;20216;-67
2022/11/01 02:11:19;;;;;;;18.17;16.23;;;13.00;1.00;;;;;;4967230;28;20460;-66
2022/11/01 02:13:45;;;;;;;18.33;16.40;;;12.90;1.00;;;;;;4961473;28;20778;-67
2022/11/01 02:16:19;;;;;;;28.07;17.20;;;12.90;1.00;;;;;;4964585;28;20442;-67
2022/11/01 02:19:02;;;;;;;23.07;16.07;;;12.90;1.00;;;;;;4978629;28;20199;-67
2022/11/01 02:21:49;;;;;;;27.83;16.70;;;12.90;1.00;;;;;;4971601;28;20445;-66
2022/11/01 02:24:45;;;;;;;18.27;15.50;;;12.90;1.00;;;;;;4973311;28;20424;-67
2022/11/01 02:27:16;;;;;;;19.90;16.67;;;12.90;1.00;;;;;;4918928;28;20439;-67
2022/11/01 02:29:54;;;;;;;18.03;14.93;;;12.90;1.00;;;;;;4982029;28;20979;-67
2022/11/01 02:32:31;;;;;;;34.47;16.50;;;12.90;1.00;;;;;;4985619;28;20420;-67
2022/11/01 02:35:24;;;;;;;21.27;16.30;;;12.90;1.00;;;;;;4979148;28;20798;-67
2022/11/01 02:37:53;;;;;;;19.70;17.10;;;12.80;1.00;;;;;;4971998;28;20502;-66
2022/11/01 02:41:13;;;;;;;19.67;15.97;;;12.90;1.00;;;;;;4978715;28;20869;-67
2022/11/01 02:43:56;;;;;;;22.63;16.77;;;12.90;1.00;;;;;;4932920;29;20445;-67
2022/11/01 02:49:12;;;;;;;36.30;17.87;;;12.90;1.00;;;;;;4977915;28;20538;-67
2022/11/01 02:51:39;;;;;;;20.50;17.53;;;12.90;1.00;;;;;;4977949;28;20471;-67
2022/11/01 02:54:06;;;;;;;17.40;15.60;;;12.80;1.00;;;;;;4965354;28;20553;-66
2022/11/01 02:56:33;;;;;;;20.47;16.40;;;12.80;1.00;;;;;;4978909;28;20427;-66
2022/11/01 02:58:59;;;;;;;21.30;15.90;;;12.80;1.00;;;;;;4993244;28;20412;-66
2022/11/01 03:01:27;;;;;;;23.70;16.77;;;12.80;1.00;;;;;;4974309;28;20773;-66
2022/11/01 03:03:56;;;;;;;33.93;15.90;;;12.80;1.00;;;;;;4973212;28;20411;-67
2022/11/01 03:06:45;;;;;;;31.57;16.60;;;12.80;1.00;;;;;;4973574;28;20419;-67
2022/11/01 03:09:12;;;;;;;21.83;15.53;;;12.80;1.00;;;;;;4973292;28;20456;-67
2022/11/01 03:11:52;;;;;;;16.50;14.27;;;12.80;1.00;;;;;;4972805;28;20401;-67
2022/11/01 03:14:18;;;;;;;19.13;15.93;;;12.80;1.00;;;;;;4973669;28;20429;-67
2022/11/01 03:17:00;;;;;;;22.53;15.20;;;12.80;1.00;;;;;;4973673;28;20989;-67
2022/11/01 03:19:31;;;;;;;22.50;14.03;;;12.70;1.00;;;;;;4974115;28;20208;-67
2022/11/01 03:22:20;;;;;;;18.67;14.73;;;12.70;1.00;;;;;;4973187;28;20416;-67
2022/11/01 03:25:38;;;;;;;15.73;13.63;;;12.80;1.00;;;;;;4973745;28;20876;-66
2022/11/01 03:27:58;;;;;;;23.03;17.90;;;12.80;1.00;;;;;;4973201;28;20417;-66
2022/11/01 03:30:23;;;;;;;17.77;14.40;;;12.80;1.00;;;;;;4971218;28;20479;-66
2022/11/01 03:32:53;;;;;;;26.47;15.40;;;12.80;1.00;;;;;;4975426;28;20731;-66
2022/11/01 03:35:23;;;;;;;22.37;16.93;;;12.70;1.00;;;;;;4975782;28;20174;-66
2022/11/01 03:37:51;;;;;;;22.83;15.63;;;12.80;1.00;;;;;;4988230;28;20432;-67
2022/11/01 03:40:17;;;;;;;36.67;16.13;;;12.80;1.00;;;;;;4979822;28;20484;-66
2022/11/01 03:42:47;;;;;;;18.20;13.80;;;12.80;1.00;;;;;;4974392;28;20925;-67
2022/11/01 03:45:18;;;;;;;17.70;15.83;;;12.80;1.00;;;;;;4975206;28;20488;-67
2022/11/01 03:47:43;;;;;;;19.63;14.53;;;12.80;1.00;;;;;;4970369;28;20516;-66
2022/11/01 03:50:19;;;;;;;23.53;15.80;;;12.80;1.00;;;;;;4979203;28;20855;-67
2022/11/01 03:52:46;;;;;;;22.10;13.97;;;12.80;1.00;;;;;;4980773;28;20188;-67
2022/11/01 03:55:19;;;;;;;16.70;14.13;;;12.80;1.00;;;;;;4963322;28;20464;-67
2022/11/01 03:57:56;;;;;;;16.13;14.30;;;12.70;1.00;;;;;;4961118;28;20435;-67
2022/11/01 04:00:30;;;;;;;16.40;14.67;;;12.70;1.00;;;;;;4975291;28;20447;-67
2022/11/01 04:02:57;;;;;;;15.87;14.13;;;12.70;1.00;;;;;;4976559;28;20528;-67
2022/11/01 04:05:25;;;;;;;21.53;15.23;;;12.70;1.00;;;;;;4975832;28;20955;-67
2022/11/01 04:07:51;;;;;;;49.13;15.67;;;12.70;1.00;;;;;;4987078;28;20432;-67
2022/11/01 04:10:18;;;;;;;16.83;15.13;;;12.70;1.00;;;;;;4954352;28;20649;-67
2022/11/01 04:12:45;;;;;;;23.20;15.00;;;12.60;1.00;;;;;;4968580;28;20521;-67
2022/11/01 04:21:05;;;;;;;26.33;14.57;;;12.60;1.00;;;;;;4982444;28;21365;-67
2022/11/01 04:23:31;;;;;;;31.33;16.07;;;12.60;1.00;;;;;;4979928;28;20428;-66
2022/11/01 04:25:57;;;;;;;32.60;15.73;;;12.60;1.00;;;;;;4965173;28;20437;-66
2022/11/01 04:28:22;;;;;;;26.57;15.30;;;12.60;1.00;;;;;;4976904;28;20775;-66
2022/11/01 04:30:48;;;;;;;20.57;15.30;;;12.60;1.00;;;;;;4974880;28;20767;-66
2022/11/01 04:33:14;;;;;;;17.37;13.53;;;12.70;1.00;;;;;;4980853;28;20181;-67
2022/11/01 04:35:40;;;;;;;18.47;15.33;;;12.70;1.00;;;;;;4983328;28;20176;-67
2022/11/01 04:38:07;;;;;;;44.83;16.73;;;12.70;1.00;;;;;;4981794;28;20964;-67
2022/11/01 04:40:33;;;;;;;26.40;15.90;;;12.70;1.00;;;;;;4972403;28;20546;-66
2022/11/01 04:42:59;;;;;;;21.93;16.03;;;12.70;1.00;;;;;;4975083;28;20528;-67
2022/11/01 04:45:25;;;;;;;27.17;15.23;;;12.70;1.00;;;;;;4972865;28;20181;-66
2022/11/01 04:48:02;;;;;;;21.70;15.50;;;12.70;1.00;;;;;;4971115;28;20260;-67
2022/11/01 04:50:28;;;;;;;23.03;16.20;;;12.60;1.00;;;;;;4969992;28;20550;-67
2022/11/01 04:52:53;;;;;;;27.70;16.20;;;12.60;1.00;;;;;;4975802;28;20435;-67
2022/11/01 04:55:19;;;;;;;17.27;14.10;;;12.60;1.00;;;;;;4966499;28;20511;-67
2022/11/01 04:57:45;;;;;;;19.40;16.47;;;12.60;1.00;;;;;;4977068;28;20173;-67
2022/11/01 05:00:12;;;;;;;20.30;15.77;;;12.60;1.00;;;;;;4971335;28;20679;-67
2022/11/01 05:02:39;;;;;;;19.13;14.47;;;12.60;1.00;;;;;;4969330;28;20174;-66
2022/11/01 05:05:06;;;;;;;23.67;16.63;;;12.60;1.00;;;;;;4971771;28;20463;-67
2022/11/01 05:07:32;;;;;;;16.87;15.17;;;12.60;1.00;;;;;;4971276;28;20475;-66
2022/11/01 05:09:58;;;;;;;24.03;17.33;;;12.60;1.00;;;;;;4971119;28;20461;-67
2022/11/01 05:12:24;;;;;;;23.67;16.60;;;12.60;1.00;;;;;;4970570;28;20256;-67
2022/11/01 05:14:49;;;;;;;23.63;16.97;;;12.60;1.00;;;;;;4971089;28;20174;-67
2022/11/01 05:17:15;;;;;;;48.03;18.83;;;12.50;1.00;;;;;;4970821;28;20180;-67
2022/11/01 05:19:41;;;;;;;18.43;15.83;;;12.50;1.00;;;;;;4971002;28;20256;-67
2022/11/01 05:22:06;;;;;;;20.70;16.63;;;12.60;1.00;;;;;;4970183;28;20257;-67
2022/11/01 05:24:32;;;;;;;26.13;20.10;;;12.60;1.00;;;;;;4970502;28;20192;-66
2022/11/01 05:26:59;;;;;;;24.57;17.00;;;12.60;1.00;;;;;;4970243;28;20181;-67
2022/11/01 05:29:25;;;;;;;25.83;18.20;;;12.60;1.00;;;;;;4971265;28;20209;-67
2022/11/01 05:31:51;;;;;;;29.53;18.97;;;12.70;1.00;;;;;;4969105;28;20555;-66
2022/11/01 05:34:17;;;;;;;32.97;18.77;;;12.70;1.00;;;;;;4975165;28;20422;-67
2022/11/01 05:36:43;;;;;;;38.53;20.30;;;12.70;1.00;;;;;;4976379;28;20642;-66
2022/11/01 05:39:09;;;;;;;41.47;20.70;;;12.70;1.00;;;;;;4979052;28;20178;-66
2022/11/01 05:41:34;;;;;;;46.07;21.57;;;12.80;1.00;;;;;;4969484;28;20636;-66
2022/11/01 05:44:00;;;;;;;33.57;21.27;;;12.80;1.00;;;;;;4968640;28;20301;-65
2022/11/01 05:46:25;;;;;;;36.40;21.60;;;12.80;1.00;;;;;;4968048;28;20223;-66
2022/11/01 05:48:51;;;;;;;28.37;20.40;;;12.90;1.00;;;;;;4980054;28;20188;-66
2022/11/01 05:51:17;;;;;;;36.93;20.83;;;12.80;1.00;;;;;;4973885;28;20198;-68
2022/11/01 05:53:42;;;;;;;42.80;21.20;;;12.90;1.00;;;;;;4992166;28;20181;-68
2022/11/01 05:56:09;;;;;;;27.70;20.20;;;12.90;1.00;;;;;;4989053;28;20260;-67
2022/11/01 05:58:34;;;;;;;30.53;20.53;;;12.80;1.00;;;;;;4973686;28;20185;-68
2022/11/01 06:01:03;;;;;;;36.10;21.77;;;12.90;1.00;;;;;;4978742;28;20967;-67
2022/11/01 06:03:29;;;;;;;33.37;21.47;;;12.90;1.00;;;;;;4983432;28;20179;-67
2022/11/01 06:05:55;;;;;;;53.90;23.07;;;12.80;1.00;;;;;;4987578;28;20431;-67
2022/11/01 06:08:21;;;;;;;31.90;21.03;;;12.90;1.00;;;;;;4974424;28;20421;-67
2022/11/01 06:10:46;;;;;;;53.33;23.70;;;12.90;1.00;;;;;;4961051;28;20255;-66
2022/11/01 06:13:12;;;;;;;45.63;21.47;;;13.00;1.00;;;;;;4979373;28;20436;-67
2022/11/01 06:15:38;;;;;;;36.40;20.07;;;13.00;1.00;;;;;;4984267;28;20243;-67
2022/11/01 06:18:04;;;;;;;41.17;21.70;;;13.00;1.00;;;;;;4980029;28;20532;-68
2022/11/01 06:20:31;;;;;;;57.30;23.17;;;13.00;1.00;;;;;;4991293;28;20203;-67
2022/11/01 06:22:58;;;;;;;37.00;23.77;;;13.00;1.00;;;;;;4971861;28;20440;-68
2022/11/01 06:25:25;;;;;;;31.90;22.40;;;13.10;1.00;;;;;;4971512;28;20462;-68
2022/11/01 06:27:53;;;;;;;30.90;22.50;;;13.10;1.00;;;;;;4976987;28;20441;-67
2022/11/01 06:30:19;;;;;;;31.13;20.23;;;13.10;1.00;;;;;;4984118;28;20800;-67
2022/11/01 06:32:45;;;;;;;40.93;21.93;;;13.10;1.00;;;;;;4988055;28;20435;-67
2022/11/01 06:35:10;;;;;;;76.20;23.37;;;13.00;1.00;;;;;;4991519;28;20432;-67
2022/11/01 06:37:38;;;;;;;72.27;22.67;;;13.00;1.00;;;;;;4981585;28;20669;-67
2022/11/01 06:40:05;;;;;;;68.67;25.17;;;13.00;1.00;;;;;;4977215;28;20288;-67
2022/11/01 06:42:30;;;;;;;43.03;21.67;;;13.00;1.00;;;;;;4983309;28;20506;-68
2022/11/01 06:44:56;;;;;;;55.23;23.37;;;13.00;1.00;;;;;;4977391;28;20912;-67
2022/11/01 06:47:22;;;;;;;34.17;21.40;;;13.00;1.00;;;;;;4986439;28;20200;-67
2022/11/01 06:49:47;;;;;;;28.60;20.33;;;13.00;1.00;;;;;;4984081;28;20205;-67
2022/11/01 06:52:13;;;;;;;34.57;19.73;;;13.10;1.00;;;;;;4974582;28;20249;-67
2022/11/01 06:54:39;;;;;;;28.80;21.40;;;13.10;1.00;;;;;;4971466;28;20613;-67
2022/11/01 06:57:04;;;;;;;23.80;20.37;;;13.10;1.00;;;;;;4978277;28;20642;-66
2022/11/01 06:59:30;;;;;;;25.90;18.73;;;13.00;1.00;;;;;;4975273;28;20173;-66
2022/11/01 07:01:56;;;;;;;30.13;23.27;;;12.90;1.00;;;;;;4983813;28;20322;-67
2022/11/01 07:04:22;;;;;;;27.33;18.90;;;13.00;1.00;;;;;;4979472;28;20264;-67
2022/11/01 07:06:47;;;;;;;27.07;19.90;;;13.10;1.00;;;;;;4962752;28;20184;-67
2022/11/01 07:09:13;;;;;;;25.90;19.23;;;13.10;1.00;;;;;;4978002;28;20977;-66
2022/11/01 07:11:39;;;;;;;23.70;20.17;;;13.20;1.00;;;;;;4980540;28;20174;-67
2022/11/01 07:14:05;;;;;;;28.40;21.03;;;13.40;1.00;;;;;;4974913;28;20205;-67
2022/11/01 07:16:31;;;;;;;39.53;24.00;;;13.70;1.00;;;;;;4979567;28;20176;-67
2022/11/01 07:18:57;;;;;;;26.97;20.70;;;14.00;1.00;;;;;;4965151;28;20903;-67
2022/11/01 07:21:23;;;;;;;29.63;21.80;;;14.40;99.90;;;;;;4966941;28;20601;-67
2022/11/01 07:23:49;;;;;;;19.90;17.80;;;15.00;39.70;;;;;;4983188;28;20411;-66
2022/11/01 07:26:15;;;;;;;45.23;22.00;;;15.50;1.00;;;;;;4975429;28;20531;-67
2022/11/01 07:28:41;;;;;;;72.73;24.77;;;15.60;1.00;;;;;;4972697;28;20177;-67
2022/11/01 07:31:07;;;;;;;57.47;22.57;;;15.70;99.90;;;;;;4971857;28;20205;-66
2022/11/01 07:33:33;;;;;;;67.03;24.47;;;15.40;1.00;;;;;;4972260;28;20284;-66
2022/11/01 07:36:00;;;;;;;99.63;27.30;;;15.20;99.90;;;;;;4973138;28;20447;-66
2022/11/01 07:38:26;;;;;;;48.33;21.60;;;15.20;1.00;;;;;;4964079;28;20221;-66
2022/11/01 07:40:53;;;;;;;30.33;20.93;;;15.10;1.00;;;;;;4976624;28;20475;-67
2022/11/01 07:43:19;;;;;;;109.40;26.23;;;14.90;99.90;;;;;;4977088;28;20177;-66
2022/11/01 07:45:46;;;;;;;98.50;27.13;;;14.90;1.00;;;;;;4965130;28;20457;-67
2022/11/01 07:48:14;;;;;;;53.43;22.53;;;14.80;1.00;;;;;;4963782;28;20524;-67
2022/11/01 07:50:41;;;;;;;44.27;21.20;;;14.70;1.00;;;;;;4975824;28;20463;-67
2022/11/01 07:53:10;;;;;;;31.60;21.87;;;14.60;99.90;;;;;;4971033;28;20541;-67
2022/11/01 07:55:36;;;;;;;31.40;22.73;;;14.50;99.90;;;;;;4976550;28;20550;-67
2022/11/01 07:58:03;;;;;;;52.43;23.77;;;14.40;99.90;;;;;;4986054;28;20818;-67
2022/11/01 08:00:30;;;;;;;33.20;19.43;;;14.40;1.00;;;;;;4957434;28;20487;-67
2022/11/01 08:03:04;;;;;;;29.13;20.70;;;14.40;1.00;;;;;;4959695;28;20868;-66
2022/11/01 08:05:30;;;;;;;33.63;20.70;;;14.40;1.00;;;;;;4961282;28;20432;-67
2022/11/01 08:07:56;;;;;;;27.50;20.73;;;14.40;1.00;;;;;;4966780;28;20774;-67
2022/11/01 08:10:22;;;;;;;43.80;20.03;;;14.40;1.00;;;;;;4977009;28;20475;-67
2022/11/01 08:12:47;;;;;;;39.10;18.00;;;14.40;1.00;;;;;;4964943;28;20174;-66
2022/11/01 08:15:13;;;;;;;40.83;20.03;;;14.40;1.00;;;;;;4970259;28;20327;-66
2022/11/01 08:17:39;;;;;;;24.53;18.67;;;14.50;1.00;;;;;;4976061;28;20275;-67
2022/11/01 08:20:06;;;;;;;23.87;18.17;;;14.50;1.00;;;;;;4971528;28;20465;-66
2022/11/01 08:22:32;;;;;;;19.90;17.23;;;14.70;1.00;;;;;;4977299;28;20173;-67
2022/11/01 08:24:57;;;;;;;26.83;19.27;;;14.80;99.90;;;;;;4977431;28;20488;-67
2022/11/01 08:27:23;;;;;;;26.00;17.60;;;15.00;99.90;;;;;;4979221;28;20436;-67
2022/11/01 08:29:49;;;;;;;20.93;18.40;;;15.40;11.30;;;;;;4978233;28;20288;-66
2022/11/01 08:32:21;;;;;;;30.63;18.77;;;16.00;99.90;;;;;;4969622;28;20497;-67
2022/11/01 08:34:48;;;;;;;44.73;18.70;;;16.40;1.00;;;;;;4972120;28;20522;-68
2022/11/01 08:37:13;;;;;;;37.90;19.97;;;16.30;99.90;;;;;;4971648;28;20981;-68
2022/11/01 08:39:39;;;;;;;39.53;19.67;;;16.10;99.90;;;;;;4972132;28;20429;-68
2022/11/01 08:42:05;;;;;;;37.60;18.10;;;16.20;1.00;;;;;;4971267;28;20227;-67
2022/11/01 08:44:33;;;;;;;51.90;19.53;;;16.40;99.90;;;;;;4970392;28;20185;-66
2022/11/01 08:47:00;;;;;;;32.60;17.37;;;16.40;1.00;;;;;;4957101;28;20213;-68
2022/11/01 08:49:26;;;;;;;35.63;18.17;;;16.20;7.50;;;;;;4977980;28;20482;-67
2022/11/01 08:51:52;;;;;;;23.90;17.00;;;16.10;99.90;;;;;;4986070;28;20426;-67
2022/11/01 08:54:18;;;;;;;52.43;18.93;;;16.00;1.00;;;;;;4978237;28;20425;-68
2022/11/01 08:56:44;;;;;;;36.93;17.67;;;15.90;9.60;;;;;;4966553;28;20445;-67
2022/11/01 08:59:10;;;;;;;37.27;17.97;;;15.80;99.90;;;;;;4975368;28;20200;-68
2022/11/01 09:01:35;;;;;;;159.03;31.20;;;15.80;1.00;;;;;;4980144;28;20203;-67
2022/11/01 09:04:01;;;;;;;48.97;20.67;;;15.80;1.00;;;;;;4977598;28;20185;-68
2022/11/01 09:06:27;;;;;;;153.53;29.70;;;15.80;1.00;;;;;;4980507;28;20181;-68
2022/11/01 09:08:54;;;;;;;77.27;19.30;;;15.80;1.00;;;;;;4976259;28;20711;-67
2022/11/01 09:11:21;;;;;;;29.33;17.20;;;15.80;1.00;;;;;;4959689;28;20454;-67
2022/11/01 09:13:48;;;;;;;23.27;16.40;;;15.70;35.80;;;;;;4951823;28;20844;-68
2022/11/01 09:16:14;;;;;;;25.43;14.80;;;15.70;99.90;;;;;;4968179;28;20436;-68
2022/11/01 09:18:39;;;;;;;18.63;15.40;;;15.70;99.90;;;;;;4976515;28;21212;-67
2022/11/01 09:21:08;;;;;;;22.23;15.33;;;15.60;99.90;;;;;;4965209;28;20604;-68
2022/11/01 09:23:34;;;;;;;33.03;16.00;;;15.60;99.90;;;;;;4969226;28;20277;-67
2022/11/01 09:26:05;;;;;;;22.17;15.13;;;15.70;99.90;;;;;;4958363;28;20508;-67
2022/11/01 09:28:32;;;;;;;17.93;15.03;;;15.60;1.00;;;;;;4980149;28;20479;-67
2022/11/01 09:31:06;;;;;;;25.80;15.60;;;15.60;1.00;;;;;;4976075;28;20473;-68
2022/11/01 09:33:32;;;;;;;84.47;24.73;;;15.60;1.00;;;;;;4968667;28;20432;-68
2022/11/01 09:35:58;;;;;;;32.13;16.57;;;15.70;1.00;;;;;;4968515;28;20464;-67
2022/11/01 09:38:24;;;;;;;47.67;18.87;;;15.70;1.00;;;;;;4965171;28;20424;-67
2022/11/01 09:41:12;;;;;;;29.50;15.20;;;15.80;1.00;;;;;;4973085;28;20448;-67
2022/11/01 09:43:42;;;;;;;26.93;15.20;;;15.90;99.90;;;;;;4965358;28;20433;-67
2022/11/01 09:46:15;;;;;;;31.00;14.13;;;15.90;99.90;;;;;;4979101;28;20430;-67
2022/11/01 09:48:42;;;;;;;22.10;16.30;;;15.90;99.90;;;;;;4964595;28;20465;-67
2022/11/01 09:51:17;;;;;;;45.67;15.87;;;16.00;99.90;;;;;;4970031;28;20469;-67
2022/11/01 09:53:43;;;;;;;30.33;15.13;;;16.10;15.00;;;;;;4951193;28;20437;-67
2022/11/01 09:56:15;;;;;;;23.13;13.50;;;16.10;1.00;;;;;;4974109;28;20540;-66
2022/11/01 09:58:51;;;;;;;55.37;16.67;;;16.10;1.00;;;;;;4981246;28;20190;-67
2022/11/01 10:01:57;;;;;;;54.83;15.33;;;16.20;1.00;;;;;;4984921;28;20547;-66
2022/11/01 10:04:33;;;;;;;86.73;17.17;;;16.20;1.00;;;;;;4931868;28;20946;-66
2022/11/01 10:06:59;;;;;;;342.80;40.00;;;16.20;1.00;;;;;;4965342;28;20446;-67
2022/11/01 10:09:40;;;;;;;66.00;14.97;;;16.30;1.00;;;;;;4969185;28;20474;-67
2022/11/01 10:12:12;;;;;;;341.70;37.07;;;16.20;1.00;;;;;;4969761;28;20243;-66
2022/11/01 10:14:40;;;;;;;157.83;24.47;;;16.20;1.00;;;;;;4967947;28;20927;-69
2022/11/01 10:17:12;;;;;;;27.63;11.90;;;16.20;99.90;;;;;;4967932;28;20439;-67
2022/11/01 10:19:49;;;;;;;64.10;17.37;;;16.10;9.70;;;;;;4953280;28;20448;-67
2022/11/01 10:22:27;;;;;;;21.53;11.70;;;16.10;99.90;;;;;;4955884;28;20469;-68
2022/11/01 10:25:18;;;;;;;24.27;11.07;;;16.10;1.00;;;;;;4966552;28;20436;-67
2022/11/01 10:27:53;;;;;;;15.77;11.33;;;16.20;1.00;;;;;;4977086;28;20428;-67
2022/11/01 10:30:19;;;;;;;15.33;11.60;;;16.30;99.90;;;;;;4964834;28;20465;-67
2022/11/01 10:33:01;;;;;;;11.23;10.13;;;16.30;99.90;;;;;;4962150;28;20508;-67
2022/11/01 10:36:01;;;;;;;10.77;9.33;;;16.30;99.90;;;;;;4979147;28;20494;-67
2022/11/01 10:38:43;;;;;;;13.87;11.10;;;16.50;76.00;;;;;;4947634;28;20432;-67
2022/11/01 10:41:22;;;;;;;40.23;14.33;;;16.70;1.00;;;;;;4985548;28;20504;-67
2022/11/01 10:43:55;;;;;;;17.10;9.60;;;16.90;99.90;;;;;;4959941;28;20822;-68
2022/11/01 10:46:26;;;;;;;59.83;12.73;;;17.10;1.00;;;;;;4954735;28;20422;-67
2022/11/01 10:48:59;;;;;;;39.43;11.50;;;17.20;99.90;;;;;;4973463;28;20423;-68
2022/11/01 10:51:29;;;;;;;34.13;10.97;;;17.20;1.00;;;;;;4970844;28;20588;-67
2022/11/01 10:53:59;;;;;;;27.03;9.87;;;17.10;1.00;;;;;;4987273;28;20423;-68
2022/11/01 10:56:43;;;;;;;15.00;7.63;;;17.10;99.90;;;;;;4970623;28;20435;-68
2022/11/01 10:59:28;;;;;;;25.27;7.60;;;17.20;99.90;;;;;;4968682;28;21185;-68
2022/11/01 11:01:55;;;;;;;20.00;8.23;;;17.10;1.00;;;;;;4972429;28;20435;-68
2022/11/01 11:04:22;;;;;;;10.57;6.63;;;17.10;1.00;;;;;;4971866;28;20539;-68
2022/11/01 11:06:49;;;;;;;170.70;20.80;;;17.10;1.00;;;;;;4953785;28;20445;-68
2022/11/01 11:09:28;;;;;;;98.67;14.77;;;17.10;1.00;;;;;;4979108;28;20461;-68
2022/11/01 11:12:02;;;;;;;73.63;11.30;;;16.90;99.90;;;;;;4968204;28;20520;-68
2022/11/01 11:14:31;;;;;;;21.33;7.40;;;16.80;99.90;;;;;;4973789;28;20421;-68
2022/11/01 11:16:58;;;;;;;32.27;8.00;;;16.80;99.90;;;;;;4970879;28;20838;-68
2022/11/01 11:19:37;;;;;;;48.47;11.67;;;16.80;99.90;;;;;;4988336;28;20792;-68
2022/11/01 11:22:07;;;;;;;52.17;9.03;;;16.80;99.90;;;;;;4971429;28;20544;-68
2022/11/01 11:24:43;;;;;;;21.77;6.27;;;16.90;99.90;;;;;;4965050;28;20479;-68
2022/11/01 11:27:18;;;;;;;18.20;6.30;;;16.80;99.90;;;;;;4962542;28;20862;-67
2022/11/01 11:30:12;;;;;;;12.63;6.17;;;16.90;14.70;;;;;;4982116;28;20496;-68
2022/11/01 11:32:47;;;;;;;9.50;6.37;;;16.80;1.00;;;;;;4970244;28;20429;-67
2022/11/01 11:35:12;;;;;;;13.03;5.87;;;16.80;1.00;;;;;;4986743;28;20436;-68
2022/11/01 11:37:39;;;;;;;9.20;5.20;;;16.80;1.00;;;;;;4961670;28;20489;-67
2022/11/01 11:40:20;;;;;;;9.53;6.07;;;16.80;1.00;;;;;;4974716;28;20244;-67
2022/11/01 11:42:50;;;;;;;6.87;5.17;;;16.90;1.00;;;;;;4961098;28;20868;-68
2022/11/01 11:45:19;;;;;;;80.63;14.70;;;17.00;1.00;;;;;;4971702;28;20488;-67
2022/11/01 11:47:47;;;;;;;63.23;11.77;;;17.00;1.00;;;;;;4980793;28;20424;-67
2022/11/01 11:50:22;;;;;;;84.73;13.40;;;17.00;1.00;;;;;;4964108;28;20544;-65
2022/11/01 11:53:05;;;;;;;14.60;6.27;;;17.00;1.00;;;;;;4952212;28;20537;-66
2022/11/01 11:56:02;;;;;;;40.97;11.50;;;16.90;1.00;;;;;;4963139;28;20472;-67
2022/11/01 11:58:41;;;;;;;70.40;11.57;;;17.00;1.00;;;;;;4953112;28;20857;-67
2022/11/01 12:01:14;;;;;;;76.47;12.67;;;17.10;1.00;;;;;;4971011;28;20449;-67
2022/11/01 12:03:48;;;;;;;66.10;10.30;;;17.10;1.00;;;;;;4952999;28;20850;-67
2022/11/01 12:06:20;;;;;;;81.83;13.73;;;17.00;1.00;;;;;;4956704;28;20919;-67
2022/11/01 12:09:03;;;;;;;30.27;7.00;;;17.00;1.00;;;;;;4976946;28;20443;-66
2022/11/01 12:11:44;;;;;;;62.53;11.47;;;17.00;1.00;;;;;;4956374;28;20452;-66
2022/11/01 12:14:22;;;;;;;53.50;10.23;;;17.00;1.00;;;;;;4967808;28;20447;-66
2022/11/01 12:16:47;;;;;;;12.57;6.60;;;17.10;1.00;;;;;;4970698;28;20796;-66
2022/11/01 12:19:28;;;;;;;9.93;5.93;;;17.10;1.00;;;;;;4975809;28;20520;-66
2022/11/01 12:21:58;;;;;;;13.10;6.30;;;17.00;1.00;;;;;;4951377;28;20193;-67
2022/11/01 12:24:46;;;;;;;10.33;7.10;;;16.90;1.00;;;;;;4975601;28;20434;-67
2022/11/01 12:27:22;;;;;;;31.03;7.40;;;17.00;1.00;;;;;;4979363;28;20424;-66
2022/11/01 12:29:51;;;;;;;43.20;10.07;;;17.00;1.00;;;;;;4967520;28;20929;-67
2022/11/01 12:32:31;;;;;;;15.10;6.27;;;17.00;1.00;;;;;;4971660;28;20444;-68
2022/11/01 12:35:01;;;;;;;15.73;5.97;;;17.00;1.00;;;;;;4952024;28;20444;-67
2022/11/01 12:37:41;;;;;;;9.57;6.40;;;17.10;1.00;;;;;;4965172;28;20493;-67
2022/11/01 12:40:20;;;;;;;13.20;6.23;;;17.10;1.00;;;;;;4975610;28;20466;-68
2022/11/01 12:43:02;;;;;;;12.20;6.40;;;17.00;1.00;;;;;;4983334;28;20965;-68
2022/11/01 12:45:44;;;;;;;21.37;7.93;;;17.00;1.00;;;;;;4970808;28;20427;-66
2022/11/01 12:48:17;;;;;;;52.53;11.00;;;17.10;1.00;;;;;;4968876;28;20445;-66
2022/11/01 12:50:49;;;;;;;19.17;7.20;;;17.00;1.00;;;;;;4966196;28;20484;-67
2022/11/01 12:53:20;;;;;;;35.03;8.60;;;17.00;1.00;;;;;;4960406;28;20540;-68
2022/11/01 12:55:46;;;;;;;43.87;9.17;;;17.00;1.00;;;;;;4951509;28;20432;-67
2022/11/01 12:58:17;;;;;;;176.10;20.23;;;17.10;1.00;;;;;;4966902;28;20520;-67
2022/11/01 13:01:15;;;;;;;51.73;11.87;;;17.10;1.00;;;;;;4971995;28;20455;-67